createdAt,value
2022-09-15T00:01:45.311Z,98579.47
2022-09-15T00:04:13.528Z,98583.88
2022-09-15T00:06:47.093Z,98578.59
2022-09-15T00:09:16.168Z,98584.47
2022-09-15T00:11:46.646Z,98581.13
2022-09-15T00:14:17.754Z,98585.31
2022-09-15T00:16:46.401Z,98580.31
2022-09-15T00:19:14.669Z,98581.41
2022-09-15T00:21:44.051Z,98584.19
2022-09-15T00:24:12.365Z,98586.81
2022-09-15T00:26:41.625Z,98588.47
2022-09-15T00:29:12.381Z,98589.47
2022-09-15T00:31:42.589Z,98586.81
2022-09-15T00:34:13.520Z,98593.78
2022-09-15T00:36:42.101Z,98591.97
2022-09-15T00:39:10.718Z,98595.44
2022-09-15T00:41:40.773Z,98594.44
2022-09-15T00:44:43.299Z,98589.16
2022-09-15T00:47:19.762Z,98584.75
2022-09-15T00:49:51.087Z,98581.13
2022-09-15T00:52:24.118Z,98587.25
2022-09-15T00:54:56.830Z,98581.97
2022-09-15T00:57:30.401Z,98578.34
2022-09-15T01:00:02.552Z,98572.94
2022-09-15T01:02:35.073Z,98574.59
2022-09-15T01:05:07.845Z,98572.81
2022-09-15T01:07:39.945Z,98570.84
2022-09-15T01:10:14.053Z,98568.94
2022-09-15T01:12:43.310Z,98570.59
2022-09-15T01:15:12.280Z,98556.41
2022-09-15T01:17:56.272Z,98562.38
2022-09-15T01:20:47.631Z,98563.09
2022-09-15T01:23:58.927Z,98563.66
2022-09-15T01:26:55.040Z,98560.03
2022-09-15T01:29:45.373Z,98558.25
2022-09-15T01:32:39.011Z,98552.84
2022-09-15T01:35:15.595Z,98545.59
2022-09-15T01:37:50.689Z,98553.38
2022-09-15T01:40:24.507Z,98546.19
2022-09-15T01:42:55.748Z,98546.31
2022-09-15T01:45:30.617Z,98549.78
2022-09-15T01:48:02.553Z,98548.09
2022-09-15T01:50:36.129Z,98549.78
2022-09-15T01:53:10.140Z,98545.47
2022-09-15T01:55:42.516Z,98540.91
2022-09-15T01:58:11.507Z,98546.19
2022-09-15T02:00:46.151Z,98536.56
2022-09-15T02:03:21.501Z,98539.19
2022-09-15T02:05:56.301Z,98537.53
2022-09-15T02:08:31.244Z,98533.22
2022-09-15T02:11:11.854Z,98532.25
2022-09-15T02:13:48.893Z,98534.66
2022-09-15T02:16:21.883Z,98523.13
2022-09-15T02:19:01.973Z,98522.13
2022-09-15T02:21:41.080Z,98517.56
2022-09-15T02:24:18.787Z,98515.88
2022-09-15T02:26:50.220Z,98521.75
2022-09-15T02:29:22.404Z,98521.59
2022-09-15T02:31:56.377Z,98515.34
2022-09-15T02:34:31.126Z,98509.09
2022-09-15T02:37:04.950Z,98517.81
2022-09-15T02:39:38.059Z,98515.34
2022-09-15T02:42:07.211Z,98508.09
2022-09-15T02:44:36.088Z,98511.72
2022-09-15T02:47:06.312Z,98507.25
2022-09-15T02:49:34.784Z,98504.06
2022-09-15T02:52:03.982Z,98498.78
2022-09-15T02:54:32.500Z,98503.09
2022-09-15T02:57:01.508Z,98492.50
2022-09-15T02:59:50.937Z,98485.84
2022-09-15T03:02:21.454Z,98481.69
2022-09-15T03:04:50.543Z,98484.47
2022-09-15T03:07:20.401Z,98477.47
2022-09-15T03:09:48.965Z,98488.06
2022-09-15T03:12:17.953Z,98482.03
2022-09-15T03:14:47.244Z,98482.19
2022-09-15T03:17:15.953Z,98483.16
2022-09-15T03:19:45.878Z,98478.00
2022-09-15T03:22:14.555Z,98485.13
2022-09-15T03:24:43.750Z,98479.25
2022-09-15T03:27:13.336Z,98485.50
2022-09-15T03:29:42.243Z,98483.00
2022-09-15T03:32:11.012Z,98477.16
2022-09-15T03:34:39.730Z,98469.94
2022-09-15T03:37:09.834Z,98475.22
2022-09-15T03:39:38.369Z,98462.16
2022-09-15T03:42:07.671Z,98459.66
2022-09-15T03:44:36.773Z,98455.88
2022-09-15T03:47:05.930Z,98449.94
2022-09-15T03:49:34.700Z,98451.59
2022-09-15T03:52:03.779Z,98448.94
2022-09-15T03:54:35.210Z,98446.31
2022-09-15T03:57:03.914Z,98446.31
2022-09-15T03:59:33.051Z,98442.69
2022-09-15T04:02:01.785Z,98438.66
2022-09-15T04:04:31.097Z,98431.56
2022-09-15T04:06:59.682Z,98436.00
2022-09-15T04:09:28.657Z,98436.00
2022-09-15T04:11:59.547Z,98436.44
2022-09-15T04:14:28.311Z,98439.91
2022-09-15T04:16:56.982Z,98446.97
2022-09-15T04:19:26.021Z,98446.41
2022-09-15T04:21:54.773Z,98449.78
2022-09-15T04:24:23.491Z,98459.22
2022-09-15T04:26:53.130Z,98459.91
2022-09-15T04:29:23.584Z,98462.44
2022-09-15T04:31:53.275Z,98472.56
2022-09-15T04:34:22.035Z,98458.41
2022-09-15T04:36:50.704Z,98458.84
2022-09-15T04:39:19.962Z,98459.25
2022-09-15T04:41:49.049Z,98468.59
2022-09-15T04:44:17.863Z,98467.50
2022-09-15T04:46:49.100Z,98463.75
2022-09-15T04:49:17.860Z,98465.41
2022-09-15T04:51:46.919Z,98458.03
2022-09-15T04:54:15.746Z,98459.41
2022-09-15T04:56:44.452Z,98466.09
2022-09-15T04:59:15.780Z,98469.28
2022-09-15T05:01:48.022Z,98465.41
2022-09-15T05:04:17.270Z,98469.44
2022-09-15T05:06:46.805Z,98471.81
2022-09-15T05:09:16.396Z,98471.50
2022-09-15T05:11:45.851Z,98471.91
2022-09-15T05:14:15.096Z,98474.56
2022-09-15T05:16:44.234Z,98480.56
2022-09-15T05:19:18.019Z,98482.50
2022-09-15T05:21:46.896Z,98479.03
2022-09-15T05:24:17.052Z,98478.06
2022-09-15T05:26:46.167Z,98485.59
2022-09-15T05:29:15.102Z,98477.22
2022-09-15T05:31:46.184Z,98485.81
2022-09-15T05:34:16.911Z,98484.72
2022-09-15T05:36:45.810Z,98478.47
2022-09-15T05:39:15.107Z,98486.25
2022-09-15T05:41:43.931Z,98487.78
2022-09-15T05:44:15.024Z,98480.53
2022-09-15T05:46:44.183Z,98485.56
2022-09-15T05:49:13.158Z,98489.59
2022-09-15T05:51:43.361Z,98489.41
2022-09-15T05:54:12.126Z,98483.84
2022-09-15T05:56:40.756Z,98485.38
2022-09-15T05:59:09.360Z,98487.63
2022-09-15T06:01:38.619Z,98492.75
2022-09-15T06:04:07.513Z,98478.56
2022-09-15T06:06:36.540Z,98470.44
2022-09-15T06:09:07.922Z,98468.25
2022-09-15T06:11:36.703Z,98468.78
2022-09-15T06:14:06.277Z,98474.59
2022-09-15T06:16:36.294Z,98477.78
2022-09-15T06:19:05.622Z,98485.72
2022-09-15T06:21:35.226Z,98489.75
2022-09-15T06:24:08.003Z,98489.53
2022-09-15T06:26:36.798Z,98491.19
2022-09-15T06:29:07.721Z,98491.03
2022-09-15T06:31:37.224Z,98493.41
2022-09-15T06:34:06.911Z,98500.22
2022-09-15T06:36:39.135Z,98508.84
2022-09-15T06:39:10.267Z,98505.22
2022-09-15T06:42:00.851Z,98502.56
2022-09-15T06:44:30.489Z,98509.13
2022-09-15T06:46:59.598Z,98507.47
2022-09-15T06:49:29.190Z,98504.13
2022-09-15T06:51:58.008Z,98513.75
2022-09-15T06:54:28.295Z,98513.59
2022-09-15T06:56:58.021Z,98510.81
2022-09-15T06:59:26.782Z,98507.31
2022-09-15T07:01:56.272Z,98507.84
2022-09-15T07:04:25.441Z,98497.66
2022-09-15T07:06:54.610Z,98504.34
2022-09-15T07:09:23.276Z,98497.78
2022-09-15T07:11:54.111Z,98507.56
2022-09-15T07:14:23.175Z,98508.50
2022-09-15T07:16:51.966Z,98502.09
2022-09-15T07:19:21.309Z,98497.06
2022-09-15T07:21:50.721Z,98503.88
2022-09-15T07:24:19.510Z,98516.16
2022-09-15T07:26:48.043Z,98513.06
2022-09-15T07:29:18.352Z,98524.88
2022-09-15T07:31:47.557Z,98521.94
2022-09-15T07:34:16.859Z,98527.94
2022-09-15T07:36:45.664Z,98532.91
2022-09-15T07:39:14.738Z,98531.97
2022-09-15T07:41:43.489Z,98551.03
2022-09-15T07:44:15.781Z,98555.66
2022-09-15T07:46:46.585Z,98553.28
2022-09-15T07:49:15.527Z,98559.41
2022-09-15T07:51:44.242Z,98566.09
2022-09-15T07:54:13.213Z,98563.16
2022-09-15T07:56:42.141Z,98556.88
2022-09-15T07:59:10.897Z,98565.13
2022-09-15T08:01:40.262Z,98572.75
2022-09-15T08:04:10.818Z,98574.44
2022-09-15T08:06:39.901Z,98566.34
2022-09-15T08:09:14.814Z,98569.25
2022-09-15T08:11:44.176Z,98584.72
2022-09-15T08:14:13.059Z,98588.03
2022-09-15T08:16:42.149Z,98586.31
2022-09-15T08:19:14.128Z,98590.44
2022-09-15T08:21:45.161Z,98592.84
2022-09-15T08:24:14.008Z,98612.66
2022-09-15T08:26:43.006Z,98621.75
2022-09-15T08:29:12.215Z,98613.75
2022-09-15T08:31:41.926Z,98615.22
2022-09-15T08:34:14.035Z,98615.22
2022-09-15T08:36:43.868Z,98613.31
2022-09-15T08:39:13.470Z,98609.81
2022-09-15T08:41:46.894Z,98613.69
2022-09-15T08:44:31.746Z,98612.16
2022-09-15T08:47:06.960Z,98609.59
2022-09-15T08:49:53.871Z,98615.16
2022-09-15T08:52:30.792Z,98617.94
2022-09-15T08:55:02.736Z,98614.00
2022-09-15T08:57:33.347Z,98612.75
2022-09-15T09:00:03.028Z,98614.50
2022-09-15T09:03:16.940Z,98615.28
2022-09-15T09:05:54.502Z,98615.56
2022-09-15T09:08:55.641Z,98615.50
2022-09-15T09:11:35.153Z,98627.22
2022-09-15T09:14:13.111Z,98629.47
2022-09-15T09:16:54.584Z,98627.81
2022-09-15T09:19:53.000Z,98622.56
2022-09-15T09:22:28.946Z,98615.09
2022-09-15T09:25:11.557Z,98627.19
2022-09-15T09:27:51.107Z,98633.91
2022-09-15T09:30:22.820Z,98633.63
2022-09-15T09:32:59.100Z,98633.91
2022-09-15T09:35:36.857Z,98635.63
2022-09-15T09:38:07.922Z,98640.91
2022-09-15T09:40:37.500Z,98637.50
2022-09-15T09:43:06.870Z,98646.97
2022-09-15T09:45:36.405Z,98646.28
2022-09-15T09:48:13.602Z,98648.13
2022-09-15T09:50:44.607Z,98641.97
2022-09-15T09:53:25.311Z,98638.50
2022-09-15T09:55:56.401Z,98645.47
2022-09-15T09:58:27.070Z,98648.94
2022-09-15T10:00:56.080Z,98659.25
2022-09-15T10:03:30.745Z,98656.53
2022-09-15T10:06:06.087Z,98657.66
2022-09-15T10:08:38.365Z,98653.81
2022-09-15T10:11:10.514Z,98655.75
2022-09-15T10:13:53.790Z,98661.69
2022-09-15T10:16:24.045Z,98659.03
2022-09-15T10:19:01.584Z,98657.09
2022-09-15T10:21:30.469Z,98655.69
2022-09-15T10:24:36.584Z,98652.91
2022-09-15T10:27:17.856Z,98661.66
2022-09-15T10:29:47.660Z,98661.28
2022-09-15T10:32:31.741Z,98657.47
2022-09-15T10:35:03.212Z,98645.97
2022-09-15T10:37:56.577Z,98645.97
2022-09-15T10:40:35.575Z,98647.31
2022-09-15T10:43:20.722Z,98654.78
2022-09-15T10:45:51.031Z,98654.09
2022-09-15T10:48:50.810Z,98641.97
2022-09-15T10:51:35.643Z,98647.41
2022-09-15T10:54:19.052Z,98647.66
2022-09-15T10:56:53.483Z,98644.44
2022-09-15T10:59:43.373Z,98645.16
2022-09-15T11:02:45.079Z,98645.31
2022-09-15T11:05:39.992Z,98646.88
2022-09-15T11:08:35.832Z,98648.19
2022-09-15T11:11:11.596Z,98645.63
2022-09-15T11:13:56.853Z,98650.66
2022-09-15T11:16:44.258Z,98648.50
2022-09-15T11:19:29.406Z,98642.28
2022-09-15T11:22:01.163Z,98643.06
2022-09-15T11:24:40.047Z,98633.94
2022-09-15T11:27:17.439Z,98630.94
2022-09-15T11:30:04.467Z,98630.81
2022-09-15T11:32:41.476Z,98632.69
2022-09-15T11:35:40.825Z,98616.06
2022-09-15T11:38:26.015Z,98621.13
2022-09-15T11:41:06.523Z,98626.53
2022-09-15T11:43:46.148Z,98630.97
2022-09-15T11:46:25.119Z,98635.44
2022-09-15T11:49:01.545Z,98626.94
2022-09-15T11:51:36.407Z,98625.69
2022-09-15T11:54:15.161Z,98615.56
2022-09-15T11:56:50.051Z,98610.53
2022-09-15T11:59:27.833Z,98606.44
2022-09-15T12:02:07.283Z,98623.78
2022-09-15T12:04:42.036Z,98624.00
2022-09-15T12:07:19.695Z,98628.31
2022-09-15T12:09:50.134Z,98617.97
2022-09-15T12:12:24.689Z,98620.25
2022-09-15T12:14:55.852Z,98623.47
2022-09-15T12:17:33.657Z,98632.66
2022-09-15T12:20:06.013Z,98633.00
2022-09-15T12:22:42.798Z,98624.66
2022-09-15T12:25:16.528Z,98622.47
2022-09-15T12:27:45.221Z,98624.00
2022-09-15T12:30:42.380Z,98626.63
2022-09-15T12:33:44.978Z,98626.94
2022-09-15T12:36:40.622Z,98630.47
2022-09-15T12:39:38.945Z,98624.59
2022-09-15T12:42:14.935Z,98625.31
2022-09-15T12:44:47.888Z,98638.09
2022-09-15T12:47:24.870Z,98631.41
2022-09-15T12:49:57.661Z,98628.59
2022-09-15T12:52:30.842Z,98621.41
2022-09-15T12:55:03.412Z,98625.31
2022-09-15T12:57:35.178Z,98621.19
2022-09-15T13:00:29.233Z,98623.81
2022-09-15T13:03:00.864Z,98616.50
2022-09-15T13:06:16.889Z,98612.31
2022-09-15T13:09:17.748Z,98626.13
2022-09-15T13:11:51.351Z,98617.00
2022-09-15T13:14:29.438Z,98614.81
2022-09-15T13:17:03.299Z,98614.47
2022-09-15T13:19:41.805Z,98607.66
2022-09-15T13:22:21.363Z,98598.50
2022-09-15T13:25:00.757Z,98603.53
2022-09-15T13:27:36.618Z,98612.53
2022-09-15T13:30:19.681Z,98596.94
2022-09-15T13:32:55.265Z,98592.47
2022-09-15T13:35:43.172Z,98591.31
2022-09-15T13:38:49.386Z,98599.81
2022-09-15T13:41:44.496Z,98601.03
2022-09-15T13:44:47.355Z,98590.03
2022-09-15T13:47:32.801Z,98583.88
2022-09-15T13:50:14.631Z,98595.69
2022-09-15T13:53:25.819Z,98596.31
2022-09-15T13:55:56.023Z,98602.94
2022-09-15T14:01:21.840Z,98592.44
2022-09-15T14:03:54.893Z,98589.59
2022-09-15T14:06:30.615Z,98587.41
2022-09-15T14:09:08.204Z,98594.72
2022-09-15T14:11:39.418Z,98584.22
2022-09-15T14:14:13.299Z,98581.88
2022-09-15T14:16:51.104Z,98577.22
2022-09-15T14:19:33.921Z,98578.53
2022-09-15T14:22:03.825Z,98572.88
2022-09-15T14:24:33.931Z,98576.03
2022-09-15T14:27:11.647Z,98575.50
2022-09-15T14:29:44.065Z,98580.31
2022-09-15T14:32:16.240Z,98572.50
2022-09-15T14:37:22.542Z,98578.75
2022-09-15T14:39:51.656Z,98580.72
2022-09-15T14:42:23.201Z,98572.41
2022-09-15T14:45:53.974Z,98575.22
2022-09-15T14:49:02.702Z,98574.88
2022-09-15T14:52:15.131Z,98577.31
2022-09-15T14:54:45.532Z,98574.31
2022-09-15T14:57:27.596Z,98571.97
2022-09-15T15:00:05.385Z,98559.31
2022-09-15T15:02:48.868Z,98550.81
2022-09-15T15:05:23.409Z,98550.63
2022-09-15T15:07:53.581Z,98553.34
2022-09-15T15:10:26.767Z,98551.13
2022-09-15T15:12:59.185Z,98550.91
2022-09-15T15:15:30.346Z,98556.09
2022-09-15T15:17:59.367Z,98555.13
2022-09-15T15:20:31.896Z,98546.47
2022-09-15T15:23:16.973Z,98551.09
2022-09-15T15:25:48.812Z,98550.41
2022-09-15T15:28:32.306Z,98559.47
2022-09-15T15:31:13.942Z,98555.09
2022-09-15T15:33:50.959Z,98555.41
2022-09-15T15:36:24.459Z,98546.38
2022-09-15T15:38:55.993Z,98544.50
2022-09-15T15:41:29.095Z,98545.97
2022-09-15T15:44:00.578Z,98549.94
2022-09-15T15:46:57.105Z,98541.38
2022-09-15T15:49:27.993Z,98538.72
2022-09-15T15:51:59.208Z,98537.94
2022-09-15T15:54:29.058Z,98539.09
2022-09-15T15:57:22.115Z,98540.56
2022-09-15T15:59:54.637Z,98543.13
2022-09-15T16:02:23.636Z,98543.53
2022-09-15T16:04:53.091Z,98543.31
2022-09-15T16:07:29.898Z,98540.59
2022-09-15T16:10:02.426Z,98537.06
2022-09-15T16:12:35.391Z,98535.69
2022-09-15T16:15:12.387Z,98538.91
2022-09-15T16:17:45.922Z,98537.72
2022-09-15T16:20:17.353Z,98544.75
2022-09-15T16:22:46.435Z,98536.56
2022-09-15T16:25:20.254Z,98544.47
2022-09-15T16:27:50.595Z,98550.22
2022-09-15T16:30:19.748Z,98552.47
2022-09-15T16:32:49.011Z,98556.41
2022-09-15T16:35:29.062Z,98561.03
2022-09-15T16:37:59.041Z,98557.69
2022-09-15T16:40:28.223Z,98553.63
2022-09-15T16:42:59.436Z,98562.88
2022-09-15T16:45:36.481Z,98556.34
2022-09-15T16:48:08.906Z,98556.78
2022-09-15T16:50:40.155Z,98554.72
2022-09-15T16:53:16.139Z,98560.63
2022-09-15T16:55:47.518Z,98561.34
2022-09-15T16:58:19.412Z,98559.41
2022-09-15T17:00:50.349Z,98557.34
2022-09-15T17:03:21.321Z,98551.78
2022-09-15T17:05:51.691Z,98556.16
2022-09-15T17:08:23.257Z,98566.63
2022-09-15T17:10:53.091Z,98570.13
2022-09-15T17:13:27.912Z,98565.56
2022-09-15T17:16:00.011Z,98573.25
2022-09-15T17:18:29.580Z,98574.06
2022-09-15T17:20:59.290Z,98575.88
2022-09-15T17:23:29.603Z,98576.03
2022-09-15T17:25:59.636Z,98578.41
2022-09-15T17:28:32.071Z,98578.81
2022-09-15T17:31:03.357Z,98568.25
2022-09-15T17:33:33.837Z,98577.16
2022-09-15T17:36:02.933Z,98586.88
2022-09-15T17:38:32.087Z,98581.03
2022-09-15T17:41:01.688Z,98581.97
2022-09-15T17:43:33.045Z,98587.94
2022-09-15T17:46:02.602Z,98583.44
2022-09-15T17:48:32.219Z,98593.16
2022-09-15T17:51:02.624Z,98584.31
2022-09-15T17:53:32.102Z,98582.47
2022-09-15T17:56:04.183Z,98582.22
2022-09-15T17:58:34.734Z,98574.09
2022-09-15T18:01:04.799Z,98570.19
2022-09-15T18:03:36.282Z,98578.22
2022-09-15T18:06:08.348Z,98573.34
2022-09-15T18:08:37.930Z,98578.44
2022-09-15T18:11:07.794Z,98580.53
2022-09-15T18:13:38.876Z,98582.56
2022-09-15T18:16:13.075Z,98578.91
2022-09-15T18:18:43.384Z,98582.78
2022-09-15T18:21:27.213Z,98579.69
2022-09-15T18:23:59.527Z,98569.53
2022-09-15T18:26:28.626Z,98577.72
2022-09-15T18:28:59.236Z,98587.69
2022-09-15T18:31:28.228Z,98584.22
2022-09-15T18:33:57.225Z,98586.84
2022-09-15T18:36:26.059Z,98577.97
2022-09-15T18:38:54.895Z,98574.22
2022-09-15T18:41:24.035Z,98577.72
2022-09-15T18:43:53.286Z,98576.03
2022-09-15T18:46:24.004Z,98577.13
2022-09-15T18:48:53.539Z,98576.53
2022-09-15T18:51:29.116Z,98577.50
2022-09-15T18:54:04.515Z,98579.69
2022-09-15T18:56:34.085Z,98586.91
2022-09-15T18:59:03.183Z,98578.03
2022-09-15T19:01:34.975Z,98585.53
2022-09-15T19:04:04.333Z,98581.56
2022-09-15T19:06:34.600Z,98583.44
2022-09-15T19:09:03.564Z,98575.00
2022-09-15T19:11:33.213Z,98573.75
2022-09-15T19:14:02.770Z,98574.50
2022-09-15T19:16:53.887Z,98576.59
2022-09-15T19:19:23.074Z,98577.16
2022-09-15T19:21:52.549Z,98570.78
2022-09-15T19:24:22.866Z,98583.84
2022-09-15T19:26:51.803Z,98588.31
2022-09-15T19:29:20.998Z,98584.84
2022-09-15T19:31:51.557Z,98578.56
2022-09-15T19:34:23.033Z,98577.03
2022-09-15T19:36:52.284Z,98578.25
2022-09-15T19:39:21.329Z,98584.50
2022-09-15T19:41:50.380Z,98577.81
2022-09-15T19:44:19.476Z,98580.47
2022-09-15T19:46:48.355Z,98587.56
2022-09-15T19:49:18.657Z,98587.69
2022-09-15T19:51:53.095Z,98589.34
2022-09-15T19:54:24.636Z,98587.56
2022-09-15T19:56:56.291Z,98588.50
2022-09-15T19:59:30.759Z,98592.00
2022-09-15T20:02:03.842Z,98596.16
2022-09-15T20:07:20.603Z,98596.25
2022-09-15T20:09:53.646Z,98597.63
2022-09-15T20:12:22.900Z,98600.00
2022-09-15T20:14:53.593Z,98597.25
2022-09-15T20:17:23.470Z,98588.91
2022-09-15T20:19:54.267Z,98592.28
2022-09-15T20:22:27.021Z,98579.06
2022-09-15T20:24:56.245Z,98584.34
2022-09-15T20:27:25.847Z,98572.94
2022-09-15T20:29:57.405Z,98579.91
2022-09-15T20:32:29.431Z,98580.75
2022-09-15T20:34:59.684Z,98573.78
2022-09-15T20:37:28.243Z,98586.47
2022-09-15T20:39:57.072Z,98585.22
2022-09-15T20:42:25.738Z,98585.09
2022-09-15T20:44:54.560Z,98584.13
2022-09-15T20:47:23.182Z,98584.97
2022-09-15T20:49:52.180Z,98576.94
2022-09-15T20:52:22.251Z,98578.59
2022-09-15T20:54:50.956Z,98584.44
2022-09-15T20:57:19.714Z,98580.81
2022-09-15T20:59:48.334Z,98587.94
2022-09-15T21:02:17.339Z,98589.47
2022-09-15T21:04:45.975Z,98600.03
2022-09-15T21:07:14.485Z,98598.31
2022-09-15T21:09:45.647Z,98598.31
2022-09-15T21:12:14.406Z,98599.19
2022-09-15T21:14:43.786Z,98598.91
2022-09-15T21:17:12.544Z,98597.81
2022-09-15T21:19:41.955Z,98596.44
2022-09-15T21:22:11.122Z,98603.28
2022-09-15T21:24:39.809Z,98604.94
2022-09-15T21:27:27.845Z,98601.31
2022-09-15T21:29:56.824Z,98603.72
2022-09-15T21:32:25.699Z,98605.38
2022-09-15T21:34:56.160Z,98609.00
2022-09-15T21:37:28.087Z,98607.31
2022-09-15T21:39:57.084Z,98616.19
2022-09-15T21:42:27.749Z,98618.72
2022-09-15T21:44:57.435Z,98625.78
2022-09-15T21:47:26.717Z,98631.22
2022-09-15T21:49:56.016Z,98625.09
2022-09-15T21:52:25.194Z,98629.41
2022-09-15T21:54:54.628Z,98630.13
2022-09-15T21:57:23.690Z,98625.94
2022-09-15T21:59:53.824Z,98630.38
2022-09-15T22:02:22.793Z,98632.03
2022-09-15T22:04:52.705Z,98639.00
2022-09-15T22:07:21.854Z,98639.00
2022-09-15T22:09:50.121Z,98642.63
2022-09-15T22:12:18.739Z,98639.00
2022-09-15T22:14:47.239Z,98647.09
2022-09-15T22:17:17.195Z,98649.84
2022-09-15T22:19:47.004Z,98665.09
2022-09-15T22:22:15.626Z,98659.25
2022-09-15T22:24:44.117Z,98655.94
2022-09-15T22:27:12.443Z,98654.38
2022-09-15T22:29:40.792Z,98649.47
2022-09-15T22:32:10.032Z,98660.16
2022-09-15T22:34:40.155Z,98651.69
2022-09-15T22:37:08.648Z,98659.72
2022-09-15T22:39:57.964Z,98667.66
2022-09-15T22:42:26.328Z,98665.13
2022-09-15T22:44:54.928Z,98674.16
2022-09-15T22:47:24.022Z,98675.25
2022-09-15T22:49:54.289Z,98676.09
2022-09-15T22:52:23.197Z,98678.88
2022-09-15T22:54:51.942Z,98681.50
2022-09-15T22:57:20.668Z,98679.72
2022-09-15T22:59:49.551Z,98682.50
2022-09-15T23:02:23.183Z,98684.16
2022-09-15T23:04:56.760Z,98692.19
2022-09-15T23:07:25.298Z,98683.59
2022-09-15T23:09:54.022Z,98686.34
2022-09-15T23:12:22.467Z,98688.28
2022-09-15T23:14:50.871Z,98692.97
2022-09-15T23:17:19.196Z,98697.56
2022-09-15T23:19:47.597Z,98693.75
2022-09-15T23:22:17.232Z,98686.09
2022-09-15T23:24:46.744Z,98699.78
2022-09-15T23:27:15.326Z,98695.88
2022-09-15T23:29:44.026Z,98699.00
2022-09-15T23:32:12.454Z,98689.94
2022-09-15T23:34:41.262Z,98687.09
2022-09-15T23:37:09.801Z,98698.16
2022-09-15T23:39:39.714Z,98703.06
2022-09-15T23:42:08.570Z,98711.34
2022-09-15T23:44:36.937Z,98714.47
2022-09-15T23:47:05.435Z,98720.97
2022-09-15T23:49:34.242Z,98708.16
2022-09-15T23:52:02.716Z,98718.09
2022-09-15T23:54:31.439Z,98712.50
2022-09-15T23:57:01.102Z,98713.94
2022-09-15T23:59:29.668Z,98706.88
